sensor_id;sensor_type;location;lat;lon;timestamp;P1;durP1;ratioP1;P2;durP2;ratioP2
8413;SDS011;4244;48.684;9.028;2024-01-16T00:01:05;7.90;;;5.67;;
8413;SDS011;4244;48.684;9.028;2024-01-16T00:03:31;8.07;;;6.13;;
8413;SDS011;4244;48.684;9.028;2024-01-16T00:05:57;8.90;;;5.10;;
8413;SDS011;4244;48.684;9.028;2024-01-16T00:08:23;7.43;;;6.23;;
8413;SDS011;4244;48.684;9.028;2024-01-16T00:10:48;8.27;;;6.10;;
8413;SDS011;4244;48.684;9.028;2024-01-16T00:13:15;8.23;;;5.10;;
8413;SDS011;4244;48.684;9.028;2024-01-16T00:15:40;9.40;;;6.33;;
8413;SDS011;4244;48.684;9.028;2024-01-16T00:18:09;9.90;;;6.17;;
8413;SDS011;4244;48.684;9.028;2024-01-16T00:20:34;7.77;;;6.53;;
8413;SDS011;4244;48.684;9.028;2024-01-16T00:23:00;9.20;;;6.40;;
8413;SDS011;4244;48.684;9.028;2024-01-16T00:25:26;5.83;;;5.30;;
8413;SDS011;4244;48.684;9.028;2024-01-16T00:27:51;6.70;;;5.60;;
8413;SDS011;4244;48.684;9.028;2024-01-16T00:30:17;7.27;;;6.10;;
8413;SDS011;4244;48.684;9.028;2024-01-16T00:32:43;6.93;;;5.30;;
8413;SDS011;4244;48.684;9.028;2024-01-16T00:35:09;9.20;;;6.10;;
8413;SDS011;4244;48.684;9.028;2024-01-16T00:37:38;10.53;;;6.27;;
8413;SDS011;4244;48.684;9.028;2024-01-16T00:40:04;10.20;;;6.33;;
8413;SDS011;4244;48.684;9.028;2024-01-16T00:42:30;9.90;;;6.03;;
8413;SDS011;4244;48.684;9.028;2024-01-16T00:44:57;11.80;;;6.10;;
8413;SDS011;4244;48.684;9.028;2024-01-16T00:47:23;8.90;;;5.90;;
8413;SDS011;4244;48.684;9.028;2024-01-16T00:49:49;7.37;;;5.87;;
8413;SDS011;4244;48.684;9.028;2024-01-16T00:52:14;10.30;;;6.37;;
8413;SDS011;4244;48.684;9.028;2024-01-16T00:54:40;7.93;;;5.43;;
8413;SDS011;4244;48.684;9.028;2024-01-16T00:57:06;9.73;;;5.87;;
8413;SDS011;4244;48.684;9.028;2024-01-16T00:59:32;7.80;;;5.20;;
8413;SDS011;4244;48.684;9.028;2024-01-16T01:01:59;9.50;;;6.77;;
8413;SDS011;4244;48.684;9.028;2024-01-16T01:04:24;10.40;;;6.73;;
8413;SDS011;4244;48.684;9.028;2024-01-16T01:06:50;8.77;;;5.97;;
8413;SDS011;4244;48.684;9.028;2024-01-16T01:09:16;7.77;;;5.57;;
8413;SDS011;4244;48.684;9.028;2024-01-16T01:11:42;6.60;;;5.20;;
8413;SDS011;4244;48.684;9.028;2024-01-16T01:14:07;9.33;;;5.30;;
8413;SDS011;4244;48.684;9.028;2024-01-16T01:16:33;13.10;;;6.10;;
8413;SDS011;4244;48.684;9.028;2024-01-16T01:18:58;7.90;;;5.50;;
8413;SDS011;4244;48.684;9.028;2024-01-16T01:21:24;7.80;;;5.17;;
8413;SDS011;4244;48.684;9.028;2024-01-16T01:23:50;8.80;;;5.80;;
8413;SDS011;4244;48.684;9.028;2024-01-16T01:26:16;8.70;;;5.27;;
8413;SDS011;4244;48.684;9.028;2024-01-16T01:28:45;7.33;;;5.70;;
8413;SDS011;4244;48.684;9.028;2024-01-16T01:31:11;6.40;;;5.30;;
8413;SDS011;4244;48.684;9.028;2024-01-16T01:33:37;9.40;;;6.00;;
8413;SDS011;4244;48.684;9.028;2024-01-16T01:36:03;9.80;;;6.00;;
8413;SDS011;4244;48.684;9.028;2024-01-16T01:38:28;6.70;;;5.00;;
8413;SDS011;4244;48.684;9.028;2024-01-16T01:40:54;11.10;;;6.33;;
8413;SDS011;4244;48.684;9.028;2024-01-16T01:43:20;10.60;;;5.70;;
8413;SDS011;4244;48.684;9.028;2024-01-16T01:48:41;8.47;;;5.80;;
8413;SDS011;4244;48.684;9.028;2024-01-16T01:51:12;6.80;;;4.63;;
8413;SDS011;4244;48.684;9.028;2024-01-16T01:53:38;11.27;;;6.17;;
8413;SDS011;4244;48.684;9.028;2024-01-16T01:56:04;7.43;;;5.93;;
8413;SDS011;4244;48.684;9.028;2024-01-16T01:58:33;10.40;;;5.70;;
8413;SDS011;4244;48.684;9.028;2024-01-16T02:01:00;9.00;;;5.00;;
8413;SDS011;4244;48.684;9.028;2024-01-16T02:03:26;8.23;;;5.70;;
8413;SDS011;4244;48.684;9.028;2024-01-16T02:05:54;11.20;;;5.80;;
8413;SDS011;4244;48.684;9.028;2024-01-16T02:08:20;8.93;;;5.90;;
8413;SDS011;4244;48.684;9.028;2024-01-16T02:10:47;7.93;;;5.40;;
8413;SDS011;4244;48.684;9.028;2024-01-16T02:13:13;7.50;;;5.60;;
8413;SDS011;4244;48.684;9.028;2024-01-16T02:15:38;8.10;;;5.60;;
8413;SDS011;4244;48.684;9.028;2024-01-16T02:18:06;7.70;;;5.40;;
8413;SDS011;4244;48.684;9.028;2024-01-16T02:20:32;7.03;;;4.90;;
8413;SDS011;4244;48.684;9.028;2024-01-16T02:22:57;9.87;;;6.07;;
8413;SDS011;4244;48.684;9.028;2024-01-16T02:25:25;7.10;;;5.57;;
8413;SDS011;4244;48.684;9.028;2024-01-16T02:27:51;7.03;;;5.87;;
8413;SDS011;4244;48.684;9.028;2024-01-16T02:30:17;8.83;;;5.73;;
8413;SDS011;4244;48.684;9.028;2024-01-16T02:32:43;8.40;;;5.70;;
8413;SDS011;4244;48.684;9.028;2024-01-16T02:35:08;12.10;;;6.43;;
8413;SDS011;4244;48.684;9.028;2024-01-16T02:37:34;8.30;;;5.20;;
8413;SDS011;4244;48.684;9.028;2024-01-16T02:40:00;7.23;;;5.30;;
8413;SDS011;4244;48.684;9.028;2024-01-16T02:42:31;6.90;;;5.37;;
8413;SDS011;4244;48.684;9.028;2024-01-16T02:44:57;7.13;;;5.00;;
8413;SDS011;4244;48.684;9.028;2024-01-16T02:47:22;8.50;;;5.60;;
8413;SDS011;4244;48.684;9.028;2024-01-16T02:49:48;7.60;;;5.47;;
8413;SDS011;4244;48.684;9.028;2024-01-16T02:52:13;7.43;;;5.27;;
8413;SDS011;4244;48.684;9.028;2024-01-16T02:54:40;5.47;;;4.17;;
8413;SDS011;4244;48.684;9.028;2024-01-16T02:57:05;11.33;;;5.53;;
8413;SDS011;4244;48.684;9.028;2024-01-16T02:59:31;10.63;;;6.20;;
8413;SDS011;4244;48.684;9.028;2024-01-16T03:01:56;6.80;;;4.40;;
8413;SDS011;4244;48.684;9.028;2024-01-16T03:04:22;8.03;;;5.33;;
8413;SDS011;4244;48.684;9.028;2024-01-16T03:06:48;5.50;;;4.63;;
8413;SDS011;4244;48.684;9.028;2024-01-16T03:09:13;6.77;;;5.13;;
8413;SDS011;4244;48.684;9.028;2024-01-16T03:11:39;6.23;;;4.90;;
8413;SDS011;4244;48.684;9.028;2024-01-16T03:14:05;6.53;;;5.20;;
8413;SDS011;4244;48.684;9.028;2024-01-16T03:16:30;8.87;;;5.30;;
8413;SDS011;4244;48.684;9.028;2024-01-16T03:18:56;8.80;;;4.73;;
8413;SDS011;4244;48.684;9.028;2024-01-16T03:21:22;5.83;;;4.90;;
8413;SDS011;4244;48.684;9.028;2024-01-16T03:23:48;6.37;;;4.60;;
8413;SDS011;4244;48.684;9.028;2024-01-16T03:26:13;9.23;;;4.87;;
8413;SDS011;4244;48.684;9.028;2024-01-16T03:28:39;9.30;;;4.43;;
8413;SDS011;4244;48.684;9.028;2024-01-16T03:31:05;7.03;;;5.40;;
8413;SDS011;4244;48.684;9.028;2024-01-16T03:33:31;9.33;;;5.53;;
8413;SDS011;4244;48.684;9.028;2024-01-16T03:35:57;8.43;;;5.63;;
8413;SDS011;4244;48.684;9.028;2024-01-16T03:38:22;8.23;;;4.73;;
8413;SDS011;4244;48.684;9.028;2024-01-16T03:40:48;8.10;;;5.10;;
8413;SDS011;4244;48.684;9.028;2024-01-16T03:43:13;6.83;;;4.77;;
8413;SDS011;4244;48.684;9.028;2024-01-16T03:45:39;5.17;;;4.60;;
8413;SDS011;4244;48.684;9.028;2024-01-16T03:48:04;5.10;;;4.03;;
8413;SDS011;4244;48.684;9.028;2024-01-16T03:50:30;6.10;;;4.63;;
8413;SDS011;4244;48.684;9.028;2024-01-16T03:52:56;7.60;;;4.90;;
8413;SDS011;4244;48.684;9.028;2024-01-16T03:55:21;7.37;;;4.90;;
8413;SDS011;4244;48.684;9.028;2024-01-16T03:57:47;7.60;;;5.03;;
8413;SDS011;4244;48.684;9.028;2024-01-16T04:00:12;7.60;;;4.80;;
8413;SDS011;4244;48.684;9.028;2024-01-16T04:02:38;7.00;;;5.30;;
8413;SDS011;4244;48.684;9.028;2024-01-16T04:05:04;7.13;;;4.50;;
8413;SDS011;4244;48.684;9.028;2024-01-16T04:07:30;5.90;;;5.10;;
8413;SDS011;4244;48.684;9.028;2024-01-16T04:09:56;6.13;;;4.80;;
8413;SDS011;4244;48.684;9.028;2024-01-16T04:12:21;8.53;;;5.50;;
8413;SDS011;4244;48.684;9.028;2024-01-16T04:14:47;7.20;;;5.30;;
8413;SDS011;4244;48.684;9.028;2024-01-16T04:17:12;8.00;;;4.93;;
8413;SDS011;4244;48.684;9.028;2024-01-16T04:19:38;6.97;;;4.97;;
8413;SDS011;4244;48.684;9.028;2024-01-16T04:22:04;6.20;;;4.30;;
8413;SDS011;4244;48.684;9.028;2024-01-16T04:24:30;9.60;;;5.40;;
8413;SDS011;4244;48.684;9.028;2024-01-16T04:26:55;6.37;;;4.70;;
8413;SDS011;4244;48.684;9.028;2024-01-16T04:29:21;7.70;;;4.90;;
8413;SDS011;4244;48.684;9.028;2024-01-16T04:31:46;8.23;;;4.87;;
8413;SDS011;4244;48.684;9.028;2024-01-16T04:34:12;6.80;;;4.27;;
8413;SDS011;4244;48.684;9.028;2024-01-16T04:36:38;5.13;;;4.20;;
8413;SDS011;4244;48.684;9.028;2024-01-16T04:39:03;6.30;;;4.50;;
8413;SDS011;4244;48.684;9.028;2024-01-16T04:41:29;6.23;;;4.83;;
8413;SDS011;4244;48.684;9.028;2024-01-16T04:43:54;6.13;;;4.67;;
8413;SDS011;4244;48.684;9.028;2024-01-16T04:46:20;8.10;;;4.90;;
8413;SDS011;4244;48.684;9.028;2024-01-16T04:48:45;7.70;;;4.90;;
8413;SDS011;4244;48.684;9.028;2024-01-16T04:51:11;11.33;;;5.10;;
8413;SDS011;4244;48.684;9.028;2024-01-16T04:53:36;6.10;;;4.33;;
8413;SDS011;4244;48.684;9.028;2024-01-16T04:56:02;5.93;;;4.37;;
8413;SDS011;4244;48.684;9.028;2024-01-16T04:58:28;7.83;;;4.53;;
8413;SDS011;4244;48.684;9.028;2024-01-16T05:00:53;7.07;;;4.63;;
8413;SDS011;4244;48.684;9.028;2024-01-16T05:03:19;9.10;;;5.10;;
8413;SDS011;4244;48.684;9.028;2024-01-16T05:05:44;6.23;;;5.50;;
8413;SDS011;4244;48.684;9.028;2024-01-16T05:08:10;7.27;;;5.07;;
8413;SDS011;4244;48.684;9.028;2024-01-16T05:10:35;6.93;;;5.07;;
8413;SDS011;4244;48.684;9.028;2024-01-16T05:13:01;12.13;;;7.77;;
8413;SDS011;4244;48.684;9.028;2024-01-16T05:15:27;10.10;;;7.87;;
8413;SDS011;4244;48.684;9.028;2024-01-16T05:17:52;7.17;;;5.57;;
8413;SDS011;4244;48.684;9.028;2024-01-16T05:20:18;8.00;;;5.07;;
8413;SDS011;4244;48.684;9.028;2024-01-16T05:22:44;9.07;;;5.77;;
8413;SDS011;4244;48.684;9.028;2024-01-16T05:25:09;8.07;;;5.00;;
8413;SDS011;4244;48.684;9.028;2024-01-16T05:27:35;9.30;;;4.63;;
8413;SDS011;4244;48.684;9.028;2024-01-16T05:30:00;7.67;;;4.43;;
8413;SDS011;4244;48.684;9.028;2024-01-16T05:32:26;6.43;;;4.73;;
8413;SDS011;4244;48.684;9.028;2024-01-16T05:34:52;5.00;;;4.50;;
8413;SDS011;4244;48.684;9.028;2024-01-16T05:37:18;5.37;;;4.60;;
8413;SDS011;4244;48.684;9.028;2024-01-16T05:39:44;6.57;;;5.23;;
8413;SDS011;4244;48.684;9.028;2024-01-16T05:42:10;10.23;;;5.30;;
8413;SDS011;4244;48.684;9.028;2024-01-16T05:44:36;9.80;;;6.23;;
8413;SDS011;4244;48.684;9.028;2024-01-16T05:47:02;6.00;;;4.93;;
8413;SDS011;4244;48.684;9.028;2024-01-16T05:49:28;6.00;;;4.33;;
8413;SDS011;4244;48.684;9.028;2024-01-16T05:51:54;7.83;;;6.20;;
8413;SDS011;4244;48.684;9.028;2024-01-16T05:54:19;8.87;;;5.50;;
8413;SDS011;4244;48.684;9.028;2024-01-16T05:56:45;6.30;;;4.37;;
8413;SDS011;4244;48.684;9.028;2024-01-16T05:59:10;8.23;;;5.17;;
8413;SDS011;4244;48.684;9.028;2024-01-16T06:01:36;6.57;;;4.30;;
8413;SDS011;4244;48.684;9.028;2024-01-16T06:04:02;5.17;;;4.07;;
8413;SDS011;4244;48.684;9.028;2024-01-16T06:06:28;7.37;;;4.53;;
8413;SDS011;4244;48.684;9.028;2024-01-16T06:08:55;6.17;;;4.47;;
8413;SDS011;4244;48.684;9.028;2024-01-16T06:11:31;8.27;;;5.00;;
8413;SDS011;4244;48.684;9.028;2024-01-16T06:13:57;7.83;;;5.60;;
8413;SDS011;4244;48.684;9.028;2024-01-16T06:16:23;5.30;;;4.00;;
8413;SDS011;4244;48.684;9.028;2024-01-16T06:18:50;6.57;;;4.00;;
8413;SDS011;4244;48.684;9.028;2024-01-16T06:21:15;7.47;;;4.60;;
8413;SDS011;4244;48.684;9.028;2024-01-16T06:23:41;6.73;;;4.67;;
8413;SDS011;4244;48.684;9.028;2024-01-16T06:26:07;5.43;;;4.00;;
8413;SDS011;4244;48.684;9.028;2024-01-16T06:28:33;6.57;;;4.23;;
8413;SDS011;4244;48.684;9.028;2024-01-16T06:30:58;4.93;;;3.93;;
8413;SDS011;4244;48.684;9.028;2024-01-16T06:33:24;4.07;;;3.37;;
8413;SDS011;4244;48.684;9.028;2024-01-16T06:35:50;6.80;;;4.50;;
8413;SDS011;4244;48.684;9.028;2024-01-16T06:38:16;4.73;;;3.73;;
8413;SDS011;4244;48.684;9.028;2024-01-16T06:40:42;6.30;;;4.20;;
8413;SDS011;4244;48.684;9.028;2024-01-16T06:43:07;8.73;;;4.60;;
8413;SDS011;4244;48.684;9.028;2024-01-16T06:45:33;6.53;;;4.30;;
8413;SDS011;4244;48.684;9.028;2024-01-16T06:47:59;7.27;;;4.93;;
8413;SDS011;4244;48.684;9.028;2024-01-16T06:50:24;5.47;;;4.10;;
8413;SDS011;4244;48.684;9.028;2024-01-16T06:52:50;6.97;;;3.97;;
8413;SDS011;4244;48.684;9.028;2024-01-16T06:55:15;7.00;;;4.77;;
8413;SDS011;4244;48.684;9.028;2024-01-16T06:57:41;5.30;;;4.13;;
8413;SDS011;4244;48.684;9.028;2024-01-16T07:00:07;5.70;;;4.40;;
8413;SDS011;4244;48.684;9.028;2024-01-16T07:02:33;8.67;;;5.07;;
8413;SDS011;4244;48.684;9.028;2024-01-16T07:04:58;6.47;;;4.67;;
8413;SDS011;4244;48.684;9.028;2024-01-16T07:07:24;6.20;;;3.87;;
8413;SDS011;4244;48.684;9.028;2024-01-16T07:09:50;4.20;;;2.00;;
8413;SDS011;4244;48.684;9.028;2024-01-16T07:12:15;14.10;;;9.23;;
8413;SDS011;4244;48.684;9.028;2024-01-16T07:14:41;9.33;;;6.60;;
8413;SDS011;4244;48.684;9.028;2024-01-16T07:17:07;6.70;;;5.80;;
8413;SDS011;4244;48.684;9.028;2024-01-16T07:19:32;9.27;;;6.70;;
8413;SDS011;4244;48.684;9.028;2024-01-16T07:21:58;7.97;;;4.53;;
8413;SDS011;4244;48.684;9.028;2024-01-16T07:24:23;6.37;;;4.60;;
8413;SDS011;4244;48.684;9.028;2024-01-16T07:26:49;6.20;;;4.53;;
8413;SDS011;4244;48.684;9.028;2024-01-16T07:29:15;7.83;;;4.60;;
8413;SDS011;4244;48.684;9.028;2024-01-16T07:31:40;5.83;;;4.40;;
8413;SDS011;4244;48.684;9.028;2024-01-16T07:34:06;6.33;;;5.10;;
8413;SDS011;4244;48.684;9.028;2024-01-16T07:36:32;3.90;;;3.43;;
8413;SDS011;4244;48.684;9.028;2024-01-16T07:38:57;5.40;;;3.90;;
8413;SDS011;4244;48.684;9.028;2024-01-16T07:41:23;4.63;;;3.80;;
8413;SDS011;4244;48.684;9.028;2024-01-16T07:43:48;4.50;;;3.20;;
8413;SDS011;4244;48.684;9.028;2024-01-16T07:46:14;6.07;;;3.93;;
8413;SDS011;4244;48.684;9.028;2024-01-16T07:48:39;5.13;;;3.73;;
8413;SDS011;4244;48.684;9.028;2024-01-16T07:51:05;6.20;;;4.63;;
8413;SDS011;4244;48.684;9.028;2024-01-16T07:53:31;4.30;;;3.90;;
8413;SDS011;4244;48.684;9.028;2024-01-16T07:55:56;6.63;;;4.07;;
8413;SDS011;4244;48.684;9.028;2024-01-16T07:58:23;7.57;;;4.83;;
8413;SDS011;4244;48.684;9.028;2024-01-16T08:00:49;6.40;;;4.33;;
8413;SDS011;4244;48.684;9.028;2024-01-16T08:03:14;7.27;;;5.77;;
8413;SDS011;4244;48.684;9.028;2024-01-16T08:05:40;6.47;;;4.43;;
8413;SDS011;4244;48.684;9.028;2024-01-16T08:08:09;5.27;;;4.20;;
8413;SDS011;4244;48.684;9.028;2024-01-16T08:10:35;5.70;;;3.93;;
8413;SDS011;4244;48.684;9.028;2024-01-16T08:13:00;6.63;;;4.40;;
8413;SDS011;4244;48.684;9.028;2024-01-16T08:15:26;6.40;;;3.73;;
8413;SDS011;4244;48.684;9.028;2024-01-16T08:17:51;6.20;;;4.40;;
8413;SDS011;4244;48.684;9.028;2024-01-16T08:20:17;6.53;;;4.13;;
8413;SDS011;4244;48.684;9.028;2024-01-16T08:22:42;5.17;;;4.17;;
8413;SDS011;4244;48.684;9.028;2024-01-16T08:25:08;5.40;;;4.40;;
8413;SDS011;4244;48.684;9.028;2024-01-16T08:27:34;4.03;;;2.70;;
8413;SDS011;4244;48.684;9.028;2024-01-16T08:29:59;5.53;;;4.00;;
8413;SDS011;4244;48.684;9.028;2024-01-16T08:32:26;6.67;;;4.83;;
8413;SDS011;4244;48.684;9.028;2024-01-16T08:34:52;6.93;;;4.83;;
8413;SDS011;4244;48.684;9.028;2024-01-16T08:37:18;7.40;;;4.27;;
8413;SDS011;4244;48.684;9.028;2024-01-16T08:39:44;4.40;;;3.70;;
8413;SDS011;4244;48.684;9.028;2024-01-16T08:42:09;6.37;;;4.40;;
8413;SDS011;4244;48.684;9.028;2024-01-16T08:44:37;5.27;;;4.07;;
8413;SDS011;4244;48.684;9.028;2024-01-16T08:47:04;6.10;;;4.27;;
8413;SDS011;4244;48.684;9.028;2024-01-16T08:49:31;5.23;;;3.97;;
8413;SDS011;4244;48.684;9.028;2024-01-16T08:51:57;5.23;;;3.97;;
8413;SDS011;4244;48.684;9.028;2024-01-16T08:54:23;6.63;;;3.67;;
8413;SDS011;4244;48.684;9.028;2024-01-16T08:56:50;4.67;;;3.57;;
8413;SDS011;4244;48.684;9.028;2024-01-16T08:59:16;6.37;;;3.40;;
8413;SDS011;4244;48.684;9.028;2024-01-16T09:01:41;5.10;;;3.60;;
8413;SDS011;4244;48.684;9.028;2024-01-16T09:04:07;5.23;;;4.03;;
8413;SDS011;4244;48.684;9.028;2024-01-16T09:06:33;5.60;;;4.00;;
8413;SDS011;4244;48.684;9.028;2024-01-16T09:08:58;6.83;;;3.83;;
8413;SDS011;4244;48.684;9.028;2024-01-16T09:11:24;4.93;;;3.73;;
8413;SDS011;4244;48.684;9.028;2024-01-16T09:13:49;6.80;;;3.40;;
8413;SDS011;4244;48.684;9.028;2024-01-16T09:16:15;6.80;;;4.80;;
8413;SDS011;4244;48.684;9.028;2024-01-16T09:18:40;9.83;;;3.63;;
8413;SDS011;4244;48.684;9.028;2024-01-16T09:21:06;5.60;;;3.80;;
8413;SDS011;4244;48.684;9.028;2024-01-16T09:23:31;7.50;;;4.40;;
8413;SDS011;4244;48.684;9.028;2024-01-16T09:25:57;6.73;;;3.90;;
8413;SDS011;4244;48.684;9.028;2024-01-16T09:28:22;3.93;;;2.90;;
8413;SDS011;4244;48.684;9.028;2024-01-16T09:30:49;4.77;;;3.23;;
8413;SDS011;4244;48.684;9.028;2024-01-16T09:33:14;4.80;;;3.90;;
8413;SDS011;4244;48.684;9.028;2024-01-16T09:35:41;7.73;;;4.23;;
8413;SDS011;4244;48.684;9.028;2024-01-16T09:38:07;6.37;;;3.73;;
8413;SDS011;4244;48.684;9.028;2024-01-16T09:40:33;4.20;;;3.80;;
8413;SDS011;4244;48.684;9.028;2024-01-16T09:43:00;6.70;;;3.53;;
8413;SDS011;4244;48.684;9.028;2024-01-16T09:45:26;6.07;;;4.07;;
8413;SDS011;4244;48.684;9.028;2024-01-16T09:47:52;3.70;;;3.23;;
8413;SDS011;4244;48.684;9.028;2024-01-16T09:50:18;8.67;;;5.07;;
8413;SDS011;4244;48.684;9.028;2024-01-16T09:52:47;7.53;;;6.10;;
8413;SDS011;4244;48.684;9.028;2024-01-16T09:55:14;7.90;;;5.70;;
8413;SDS011;4244;48.684;9.028;2024-01-16T09:57:40;5.90;;;4.10;;
8413;SDS011;4244;48.684;9.028;2024-01-16T10:00:10;5.30;;;4.53;;
8413;SDS011;4244;48.684;9.028;2024-01-16T10:02:37;8.93;;;5.83;;
8413;SDS011;4244;48.684;9.028;2024-01-16T10:05:07;6.80;;;5.20;;
8413;SDS011;4244;48.684;9.028;2024-01-16T10:07:35;4.33;;;3.90;;
8413;SDS011;4244;48.684;9.028;2024-01-16T10:10:03;5.53;;;3.30;;
8413;SDS011;4244;48.684;9.028;2024-01-16T10:12:28;5.93;;;4.90;;
8413;SDS011;4244;48.684;9.028;2024-01-16T10:14:55;6.03;;;5.37;;
8413;SDS011;4244;48.684;9.028;2024-01-16T10:17:21;8.53;;;7.30;;
8413;SDS011;4244;48.684;9.028;2024-01-16T10:19:47;10.50;;;9.13;;
8413;SDS011;4244;48.684;9.028;2024-01-16T10:22:18;5.07;;;4.50;;
8413;SDS011;4244;48.684;9.028;2024-01-16T10:24:49;7.43;;;5.53;;
8413;SDS011;4244;48.684;9.028;2024-01-16T10:27:42;7.53;;;4.90;;
8413;SDS011;4244;48.684;9.028;2024-01-16T10:30:08;7.23;;;4.60;;
8413;SDS011;4244;48.684;9.028;2024-01-16T10:32:35;4.50;;;4.07;;
8413;SDS011;4244;48.684;9.028;2024-01-16T10:35:07;4.60;;;4.03;;
8413;SDS011;4244;48.684;9.028;2024-01-16T10:37:43;6.10;;;5.10;;
8413;SDS011;4244;48.684;9.028;2024-01-16T10:40:10;6.07;;;4.87;;
8413;SDS011;4244;48.684;9.028;2024-01-16T10:42:43;5.80;;;4.67;;
8413;SDS011;4244;48.684;9.028;2024-01-16T10:45:20;6.80;;;4.33;;
8413;SDS011;4244;48.684;9.028;2024-01-16T10:47:47;10.47;;;5.90;;
8413;SDS011;4244;48.684;9.028;2024-01-16T10:50:13;5.00;;;4.27;;
8413;SDS011;4244;48.684;9.028;2024-01-16T10:52:42;6.73;;;5.30;;
8413;SDS011;4244;48.684;9.028;2024-01-16T10:55:13;7.73;;;2.80;;
8413;SDS011;4244;48.684;9.028;2024-01-16T10:57:48;4.37;;;3.73;;
8413;SDS011;4244;48.684;9.028;2024-01-16T11:00:16;6.00;;;4.37;;
8413;SDS011;4244;48.684;9.028;2024-01-16T11:02:49;15.10;;;8.77;;
8413;SDS011;4244;48.684;9.028;2024-01-16T11:05:25;16.07;;;10.20;;
8413;SDS011;4244;48.684;9.028;2024-01-16T11:07:53;11.50;;;6.70;;
8413;SDS011;4244;48.684;9.028;2024-01-16T11:10:19;7.63;;;4.37;;
8413;SDS011;4244;48.684;9.028;2024-01-16T11:12:45;10.03;;;5.70;;
8413;SDS011;4244;48.684;9.028;2024-01-16T11:15:11;5.07;;;4.30;;
8413;SDS011;4244;48.684;9.028;2024-01-16T11:17:37;5.23;;;4.60;;
8413;SDS011;4244;48.684;9.028;2024-01-16T11:20:05;5.63;;;4.80;;
8413;SDS011;4244;48.684;9.028;2024-01-16T11:22:34;11.70;;;9.60;;
8413;SDS011;4244;48.684;9.028;2024-01-16T11:25:13;6.87;;;5.33;;
8413;SDS011;4244;48.684;9.028;2024-01-16T11:27:40;7.40;;;5.37;;
8413;SDS011;4244;48.684;9.028;2024-01-16T11:30:07;5.00;;;3.50;;
8413;SDS011;4244;48.684;9.028;2024-01-16T11:32:35;6.90;;;3.20;;
8413;SDS011;4244;48.684;9.028;2024-01-16T11:35:03;5.60;;;2.83;;
8413;SDS011;4244;48.684;9.028;2024-01-16T11:37:32;8.23;;;3.53;;
8413;SDS011;4244;48.684;9.028;2024-01-16T11:42:43;4.07;;;3.10;;
8413;SDS011;4244;48.684;9.028;2024-01-16T11:48:16;4.47;;;3.07;;
8413;SDS011;4244;48.684;9.028;2024-01-16T11:50:42;5.33;;;3.60;;
8413;SDS011;4244;48.684;9.028;2024-01-16T11:53:08;5.40;;;3.10;;
8413;SDS011;4244;48.684;9.028;2024-01-16T11:56:21;4.60;;;2.90;;
8413;SDS011;4244;48.684;9.028;2024-01-16T12:01:14;5.13;;;3.63;;
8413;SDS011;4244;48.684;9.028;2024-01-16T12:03:41;3.10;;;2.77;;
8413;SDS011;4244;48.684;9.028;2024-01-16T12:06:06;3.37;;;1.80;;
8413;SDS011;4244;48.684;9.028;2024-01-16T12:08:34;5.83;;;2.73;;
8413;SDS011;4244;48.684;9.028;2024-01-16T12:11:01;5.43;;;2.87;;
8413;SDS011;4244;48.684;9.028;2024-01-16T12:13:27;6.43;;;2.87;;
8413;SDS011;4244;48.684;9.028;2024-01-16T12:16:01;2.63;;;1.80;;
8413;SDS011;4244;48.684;9.028;2024-01-16T12:18:29;3.30;;;2.60;;
8413;SDS011;4244;48.684;9.028;2024-01-16T12:20:55;3.40;;;1.70;;
8413;SDS011;4244;48.684;9.028;2024-01-16T12:23:20;3.60;;;1.93;;
8413;SDS011;4244;48.684;9.028;2024-01-16T12:25:51;3.90;;;2.47;;
8413;SDS011;4244;48.684;9.028;2024-01-16T12:28:17;2.73;;;1.93;;
8413;SDS011;4244;48.684;9.028;2024-01-16T12:30:50;3.17;;;2.03;;
8413;SDS011;4244;48.684;9.028;2024-01-16T12:33:16;3.70;;;2.63;;
8413;SDS011;4244;48.684;9.028;2024-01-16T12:35:43;2.37;;;1.97;;
8413;SDS011;4244;48.684;9.028;2024-01-16T12:38:12;3.30;;;2.33;;
8413;SDS011;4244;48.684;9.028;2024-01-16T12:40:43;3.53;;;2.67;;
8413;SDS011;4244;48.684;9.028;2024-01-16T12:43:11;3.53;;;2.47;;
8413;SDS011;4244;48.684;9.028;2024-01-16T12:45:36;4.27;;;2.50;;
8413;SDS011;4244;48.684;9.028;2024-01-16T12:48:02;3.23;;;2.50;;
8413;SDS011;4244;48.684;9.028;2024-01-16T12:50:29;3.17;;;2.80;;
8413;SDS011;4244;48.684;9.028;2024-01-16T12:55:30;5.00;;;3.47;;
8413;SDS011;4244;48.684;9.028;2024-01-16T13:00:47;3.53;;;2.50;;
8413;SDS011;4244;48.684;9.028;2024-01-16T13:03:20;3.33;;;2.23;;
8413;SDS011;4244;48.684;9.028;2024-01-16T13:05:57;4.17;;;2.57;;
8413;SDS011;4244;48.684;9.028;2024-01-16T13:08:23;4.27;;;2.63;;
8413;SDS011;4244;48.684;9.028;2024-01-16T13:13:28;2.77;;;2.47;;
8413;SDS011;4244;48.684;9.028;2024-01-16T13:15:54;3.67;;;2.33;;
8413;SDS011;4244;48.684;9.028;2024-01-16T13:18:23;3.03;;;2.23;;
8413;SDS011;4244;48.684;9.028;2024-01-16T13:20:50;2.93;;;2.17;;
8413;SDS011;4244;48.684;9.028;2024-01-16T13:23:17;3.10;;;2.40;;
8413;SDS011;4244;48.684;9.028;2024-01-16T13:25:43;3.00;;;2.70;;
8413;SDS011;4244;48.684;9.028;2024-01-16T13:28:10;4.33;;;2.67;;
8413;SDS011;4244;48.684;9.028;2024-01-16T13:30:36;3.83;;;2.90;;
8413;SDS011;4244;48.684;9.028;2024-01-16T13:33:02;3.00;;;2.17;;
8413;SDS011;4244;48.684;9.028;2024-01-16T13:35:29;2.10;;;1.90;;
8413;SDS011;4244;48.684;9.028;2024-01-16T13:37:55;3.00;;;2.33;;
8413;SDS011;4244;48.684;9.028;2024-01-16T13:40:21;3.50;;;2.20;;
8413;SDS011;4244;48.684;9.028;2024-01-16T13:42:47;3.13;;;2.47;;
8413;SDS011;4244;48.684;9.028;2024-01-16T13:45:13;3.20;;;2.30;;
8413;SDS011;4244;48.684;9.028;2024-01-16T13:47:39;3.13;;;2.83;;
8413;SDS011;4244;48.684;9.028;2024-01-16T13:50:06;4.83;;;2.10;;
8413;SDS011;4244;48.684;9.028;2024-01-16T13:52:33;3.30;;;2.50;;
8413;SDS011;4244;48.684;9.028;2024-01-16T13:54:59;3.90;;;2.30;;
8413;SDS011;4244;48.684;9.028;2024-01-16T13:57:27;2.93;;;2.20;;
8413;SDS011;4244;48.684;9.028;2024-01-16T13:59:53;4.17;;;2.60;;
8413;SDS011;4244;48.684;9.028;2024-01-16T14:02:18;3.80;;;3.20;;
8413;SDS011;4244;48.684;9.028;2024-01-16T14:04:44;3.17;;;2.87;;
8413;SDS011;4244;48.684;9.028;2024-01-16T14:07:10;3.10;;;2.80;;
8413;SDS011;4244;48.684;9.028;2024-01-16T14:09:36;3.40;;;3.10;;
8413;SDS011;4244;48.684;9.028;2024-01-16T14:12:11;3.43;;;2.60;;
8413;SDS011;4244;48.684;9.028;2024-01-16T14:14:38;4.43;;;3.03;;
8413;SDS011;4244;48.684;9.028;2024-01-16T14:17:14;3.43;;;3.13;;
8413;SDS011;4244;48.684;9.028;2024-01-16T14:19:40;6.63;;;4.10;;
8413;SDS011;4244;48.684;9.028;2024-01-16T14:22:07;5.73;;;2.70;;
8413;SDS011;4244;48.684;9.028;2024-01-16T14:24:33;3.83;;;3.03;;
8413;SDS011;4244;48.684;9.028;2024-01-16T14:26:59;4.80;;;3.83;;
8413;SDS011;4244;48.684;9.028;2024-01-16T14:29:31;4.30;;;3.57;;
8413;SDS011;4244;48.684;9.028;2024-01-16T14:31:59;5.30;;;3.90;;
8413;SDS011;4244;48.684;9.028;2024-01-16T14:34:25;3.70;;;3.07;;
8413;SDS011;4244;48.684;9.028;2024-01-16T14:36:52;4.87;;;3.33;;
8413;SDS011;4244;48.684;9.028;2024-01-16T14:39:18;4.30;;;3.50;;
8413;SDS011;4244;48.684;9.028;2024-01-16T14:41:50;4.10;;;3.70;;
8413;SDS011;4244;48.684;9.028;2024-01-16T14:44:16;4.03;;;3.50;;
8413;SDS011;4244;48.684;9.028;2024-01-16T14:46:42;4.27;;;3.87;;
8413;SDS011;4244;48.684;9.028;2024-01-16T14:49:10;4.87;;;3.90;;
8413;SDS011;4244;48.684;9.028;2024-01-16T14:51:36;4.30;;;3.90;;
8413;SDS011;4244;48.684;9.028;2024-01-16T14:54:02;4.30;;;3.70;;
8413;SDS011;4244;48.684;9.028;2024-01-16T14:56:29;8.70;;;2.90;;
8413;SDS011;4244;48.684;9.028;2024-01-16T14:58:55;3.77;;;2.60;;
8413;SDS011;4244;48.684;9.028;2024-01-16T15:01:22;5.60;;;4.10;;
8413;SDS011;4244;48.684;9.028;2024-01-16T15:03:48;4.57;;;4.10;;
8413;SDS011;4244;48.684;9.028;2024-01-16T15:06:14;6.17;;;4.70;;
8413;SDS011;4244;48.684;9.028;2024-01-16T15:08:40;6.10;;;4.70;;
8413;SDS011;4244;48.684;9.028;2024-01-16T15:11:05;5.27;;;4.73;;
8413;SDS011;4244;48.684;9.028;2024-01-16T15:13:32;5.03;;;4.20;;
8413;SDS011;4244;48.684;9.028;2024-01-16T15:15:59;5.60;;;4.30;;
8413;SDS011;4244;48.684;9.028;2024-01-16T15:18:24;6.67;;;5.80;;
8413;SDS011;4244;48.684;9.028;2024-01-16T15:20:50;5.90;;;4.60;;
8413;SDS011;4244;48.684;9.028;2024-01-16T15:23:16;5.60;;;4.83;;
8413;SDS011;4244;48.684;9.028;2024-01-16T15:25:41;7.60;;;5.93;;
8413;SDS011;4244;48.684;9.028;2024-01-16T15:28:07;9.40;;;5.27;;
8413;SDS011;4244;48.684;9.028;2024-01-16T15:30:33;11.23;;;6.33;;